sensor_id;sensor_type;location;lat;lon;timestamp;pressure;altitude;pressure_sealevel;temperature
65738;BMP280;52478;51.844;6.582;2023-07-30T19:03:45;100931.25;;;24.36
65738;BMP280;52478;51.844;6.582;2023-07-30T19:06:13;100934.53;;;24.14
65738;BMP280;52478;51.844;6.582;2023-07-30T19:08:39;100930.53;;;23.89
65738;BMP280;52478;51.844;6.582;2023-07-30T19:11:06;100918.47;;;23.94
65738;BMP280;52478;51.844;6.582;2023-07-30T19:13:32;100923.84;;;23.92
65738;BMP280;52478;51.844;6.582;2023-07-30T19:15:59;100926.44;;;23.90
65738;BMP280;52478;51.844;6.582;2023-07-30T19:18:26;100926.22;;;23.88
65738;BMP280;52478;51.844;6.582;2023-07-30T19:20:53;100925.28;;;23.86
65738;BMP280;52478;51.844;6.582;2023-07-30T19:23:20;100924.09;;;23.81
65738;BMP280;52478;51.844;6.582;2023-07-30T19:25:47;100927.97;;;23.78
65738;BMP280;52478;51.844;6.582;2023-07-30T19:28:13;100937.22;;;23.73
65738;BMP280;52478;51.844;6.582;2023-07-30T19:30:40;100935.72;;;23.72
65738;BMP280;52478;51.844;6.582;2023-07-30T19:33:07;100941.31;;;23.72
65738;BMP280;52478;51.844;6.582;2023-07-30T19:35:34;100936.59;;;23.67
65738;BMP280;52478;51.844;6.582;2023-07-30T19:38:02;100925.84;;;23.58
65738;BMP280;52478;51.844;6.582;2023-07-30T19:40:30;100938.31;;;23.57
65738;BMP280;52478;51.844;6.582;2023-07-30T19:42:57;100930.78;;;23.52
65738;BMP280;52478;51.844;6.582;2023-07-30T19:45:23;100937.75;;;23.46
65738;BMP280;52478;51.844;6.582;2023-07-30T19:47:50;100933.13;;;23.48
65738;BMP280;52478;51.844;6.582;2023-07-30T19:50:17;100938.72;;;23.48
65738;BMP280;52478;51.844;6.582;2023-07-30T19:52:44;100938.41;;;23.52
65738;BMP280;52478;51.844;6.582;2023-07-30T19:55:12;100920.69;;;23.49
65738;BMP280;52478;51.844;6.582;2023-07-30T19:57:38;100909.69;;;23.51
65738;BMP280;52478;51.844;6.582;2023-07-30T20:00:06;100918.34;;;23.53
65738;BMP280;52478;51.844;6.582;2023-07-30T20:02:32;100912.50;;;23.51
65738;BMP280;52478;51.844;6.582;2023-07-30T20:04:59;100922.19;;;23.50
65738;BMP280;52478;51.844;6.582;2023-07-30T20:07:26;100914.22;;;23.41
65738;BMP280;52478;51.844;6.582;2023-07-30T20:09:52;100908.22;;;23.37
65738;BMP280;52478;51.844;6.582;2023-07-30T20:12:20;100919.19;;;23.35
65738;BMP280;52478;51.844;6.582;2023-07-30T20:14:47;100913.59;;;23.23
65738;BMP280;52478;51.844;6.582;2023-07-30T20:17:13;100909.72;;;23.26
65738;BMP280;52478;51.844;6.582;2023-07-30T20:19:41;100915.31;;;23.26
65738;BMP280;52478;51.844;6.582;2023-07-30T20:22:07;100907.88;;;23.28
65738;BMP280;52478;51.844;6.582;2023-07-30T20:24:37;100906.69;;;23.24
65738;BMP280;52478;51.844;6.582;2023-07-30T20:27:04;100909.31;;;23.22
65738;BMP280;52478;51.844;6.582;2023-07-30T20:29:32;100886.97;;;23.22
65738;BMP280;52478;51.844;6.582;2023-07-30T20:31:59;100894.66;;;23.16
65738;BMP280;52478;51.844;6.582;2023-07-30T20:34:25;100887.25;;;23.18
65738;BMP280;52478;51.844;6.582;2023-07-30T20:36:52;100875.53;;;23.20
65738;BMP280;52478;51.844;6.582;2023-07-30T20:39:19;100871.97;;;23.19
65738;BMP280;52478;51.844;6.582;2023-07-30T20:41:46;100875.03;;;23.21
65738;BMP280;52478;51.844;6.582;2023-07-30T20:44:12;100864.03;;;23.23
65738;BMP280;52478;51.844;6.582;2023-07-30T20:46:40;100856.44;;;23.24
65738;BMP280;52478;51.844;6.582;2023-07-30T20:49:06;100849.03;;;23.26
65738;BMP280;52478;51.844;6.582;2023-07-30T20:51:33;100851.72;;;23.31
65738;BMP280;52478;51.844;6.582;2023-07-30T20:53:59;100840.09;;;23.27
65738;BMP280;52478;51.844;6.582;2023-07-30T20:56:26;100828.41;;;23.29
65738;BMP280;52478;51.844;6.582;2023-07-30T20:58:52;100838.69;;;23.34
65738;BMP280;52478;51.844;6.582;2023-07-30T21:01:19;100830.31;;;23.34
65738;BMP280;52478;51.844;6.582;2023-07-30T21:03:47;100818.63;;;23.35
65738;BMP280;52478;51.844;6.582;2023-07-30T21:06:13;100832.34;;;23.33
65738;BMP280;52478;51.844;6.582;2023-07-30T21:08:40;100840.00;;;23.33
65738;BMP280;52478;51.844;6.582;2023-07-30T21:11:06;100830.44;;;23.28
65738;BMP280;52478;51.844;6.582;2023-07-30T21:13:34;100837.88;;;23.26
65738;BMP280;52478;51.844;6.582;2023-07-30T21:16:00;100839.22;;;23.20
65738;BMP280;52478;51.844;6.582;2023-07-30T21:18:27;100857.72;;;23.10
65738;BMP280;52478;51.844;6.582;2023-07-30T21:20:55;100847.19;;;23.03
65738;BMP280;52478;51.844;6.582;2023-07-30T21:23:21;100833.44;;;23.05
65738;BMP280;52478;51.844;6.582;2023-07-30T21:25:50;100837.97;;;23.08
65738;BMP280;52478;51.844;6.582;2023-07-30T21:28:16;100835.38;;;23.10
65738;BMP280;52478;51.844;6.582;2023-07-30T21:30:43;100833.66;;;23.07
65738;BMP280;52478;51.844;6.582;2023-07-30T21:33:09;100835.38;;;23.10
65738;BMP280;52478;51.844;6.582;2023-07-30T21:35:36;100832.38;;;23.08
65738;BMP280;52478;51.844;6.582;2023-07-30T21:38:04;100835.38;;;23.10
65738;BMP280;52478;51.844;6.582;2023-07-30T21:40:30;100846.78;;;23.12
65738;BMP280;52478;51.844;6.582;2023-07-30T21:42:57;100849.56;;;23.12
65738;BMP280;52478;51.844;6.582;2023-07-30T21:45:23;100845.03;;;23.09
65738;BMP280;52478;51.844;6.582;2023-07-30T21:47:51;100847.00;;;23.14
65738;BMP280;52478;51.844;6.582;2023-07-30T21:50:18;100854.06;;;23.15
65738;BMP280;52478;51.844;6.582;2023-07-30T21:52:44;100851.16;;;22.94
65738;BMP280;52478;51.844;6.582;2023-07-30T21:55:12;100840.31;;;22.91
65738;BMP280;52478;51.844;6.582;2023-07-30T21:57:39;100845.22;;;22.85
65738;BMP280;52478;51.844;6.582;2023-07-30T22:00:06;100837.94;;;22.82
65738;BMP280;52478;51.844;6.582;2023-07-30T22:02:34;100832.81;;;22.86
65738;BMP280;52478;51.844;6.582;2023-07-30T22:05:00;100832.56;;;22.84
65738;BMP280;52478;51.844;6.582;2023-07-30T22:07:27;100826.97;;;22.71
65738;BMP280;52478;51.844;6.582;2023-07-30T22:09:53;100830.91;;;22.49
65738;BMP280;52478;51.844;6.582;2023-07-30T22:12:21;100826.94;;;22.45
65738;BMP280;52478;51.844;6.582;2023-07-30T22:14:48;100836.78;;;22.46
65738;BMP280;52478;51.844;6.582;2023-07-30T22:17:14;100836.41;;;22.36
65738;BMP280;52478;51.844;6.582;2023-07-30T22:19:41;100823.81;;;22.17
65738;BMP280;52478;51.844;6.582;2023-07-30T22:22:07;100831.72;;;22.13
65738;BMP280;52478;51.844;6.582;2023-07-30T22:24:34;100831.09;;;22.20
65738;BMP280;52478;51.844;6.582;2023-07-30T22:27:01;100822.88;;;22.27
65738;BMP280;52478;51.844;6.582;2023-07-30T22:29:29;100821.63;;;22.10
65738;BMP280;52478;51.844;6.582;2023-07-30T22:31:55;100827.44;;;22.12
65738;BMP280;52478;51.844;6.582;2023-07-30T22:34:22;100824.75;;;22.07
65738;BMP280;52478;51.844;6.582;2023-07-30T22:36:48;100813.81;;;21.90
65738;BMP280;52478;51.844;6.582;2023-07-30T22:39:15;100816.75;;;21.79
65738;BMP280;52478;51.844;6.582;2023-07-30T22:41:41;100813.75;;;21.77
65738;BMP280;52478;51.844;6.582;2023-07-30T22:44:08;100801.72;;;21.69
65738;BMP280;52478;51.844;6.582;2023-07-30T22:46:35;100804.13;;;21.78
65738;BMP280;52478;51.844;6.582;2023-07-30T22:49:02;100797.19;;;21.85
65738;BMP280;52478;51.844;6.582;2023-07-30T22:51:28;100796.41;;;21.84
65738;BMP280;52478;51.844;6.582;2023-07-30T22:53:55;100794.91;;;21.83
65738;BMP280;52478;51.844;6.582;2023-07-30T22:56:22;100793.56;;;21.90
65738;BMP280;52478;51.844;6.582;2023-07-30T22:58:48;100792.81;;;21.89
65738;BMP280;52478;51.844;6.582;2023-07-30T23:01:15;100792.72;;;21.95
65738;BMP280;52478;51.844;6.582;2023-07-30T23:03:43;100797.66;;;21.89
65738;BMP280;52478;51.844;6.582;2023-07-30T23:06:10;100796.28;;;21.95
65738;BMP280;52478;51.844;6.582;2023-07-30T23:08:36;100794.44;;;21.98
65738;BMP280;52478;51.844;6.582;2023-07-30T23:11:03;100802.03;;;21.97
65738;BMP280;52478;51.844;6.582;2023-07-30T23:13:29;100792.66;;;22.00
65738;BMP280;52478;51.844;6.582;2023-07-30T23:15:56;100792.13;;;22.02
65738;BMP280;52478;51.844;6.582;2023-07-30T23:18:22;100778.88;;;21.89
65738;BMP280;52478;51.844;6.582;2023-07-30T23:20:50;100776.91;;;21.84
65738;BMP280;52478;51.844;6.582;2023-07-30T23:23:16;100771.50;;;21.73
65738;BMP280;52478;51.844;6.582;2023-07-30T23:25:43;100771.69;;;21.62
65738;BMP280;52478;51.844;6.582;2023-07-30T23:28:09;100780.00;;;21.44
65738;BMP280;52478;51.844;6.582;2023-07-30T23:30:37;100774.75;;;21.40
65738;BMP280;52478;51.844;6.582;2023-07-30T23:33:04;100769.59;;;21.26
65738;BMP280;52478;51.844;6.582;2023-07-30T23:35:30;100769.75;;;21.15
65738;BMP280;52478;51.844;6.582;2023-07-30T23:37:58;100770.97;;;21.20
65738;BMP280;52478;51.844;6.582;2023-07-30T23:40:25;100755.88;;;21.10
65738;BMP280;52478;51.844;6.582;2023-07-30T23:42:51;100757.69;;;21.25
65738;BMP280;52478;51.844;6.582;2023-07-30T23:45:18;100756.66;;;21.28
65738;BMP280;52478;51.844;6.582;2023-07-30T23:47:44;100755.47;;;21.42
65738;BMP280;52478;51.844;6.582;2023-07-30T23:50:11;100758.63;;;21.33
65738;BMP280;52478;51.844;6.582;2023-07-30T23:52:37;100754.72;;;21.23
65738;BMP280;52478;51.844;6.582;2023-07-30T23:55:06;100752.44;;;21.22
65738;BMP280;52478;51.844;6.582;2023-07-30T23:57:32;100746.56;;;21.25
65738;BMP280;52478;51.844;6.582;2023-07-30T23:59:59;100748.41;;;21.41
